Wetterdaten: Woche 11.12.17 - 17.12.17 (KW50)
Datum Zeit Temp. A. Feuchte A. Luftdruck Regen Wind Richtung Taupunkt Windchill Windben
11.12.2017 00:00 2,9 C 93 % 989,3 hPa 1,0 l/m 4,5 km/h (1 Bft) N-NO 1,9 C 2,9 C 10,3 km/h (2 Bft)
11.12.2017 01:00 3,4 C 95 % 988,9 hPa 2,5 l/m 4,0 km/h (1 Bft) N-NO 2,7 C 3,4 C 11,9 km/h (2 Bft)
11.12.2017 02:00 3,2 C 96 % 988,2 hPa 0,5 l/m 3,7 km/h (1 Bft) NO 2,7 C 3,1 C 10,2 km/h (2 Bft)
11.12.2017 03:00 3,7 C 95 % 987,3 hPa 0,0 l/m 2,1 km/h (1 Bft) NO 2,9 C 3,6 C 6,6 km/h (2 Bft)
11.12.2017 04:00 3,0 C 96 % 986,6 hPa 0,3 l/m 1,9 km/h (1 Bft) NO 2,5 C 3,0 C 5,4 km/h (2 Bft)
11.12.2017 05:00 2,8 C 96 % 985,9 hPa 0,8 l/m 2,7 km/h (1 Bft) O 2,2 C 2,8 C 8,2 km/h (2 Bft)
11.12.2017 06:00 2,9 C 96 % 985,1 hPa 1,0 l/m 2,5 km/h (1 Bft) O 2,3 C 2,9 C 6,7 km/h (2 Bft)
11.12.2017 07:00 2,7 C 96 % 984,2 hPa 1,5 l/m 0,4 km/h (0 Bft) O-NO 2,1 C 2,7 C 2,2 km/h (1 Bft)
11.12.2017 08:00 2,6 C 97 % 984,1 hPa 1,8 l/m 0,4 km/h (0 Bft) O-SO 2,1 C 2,6 C 2,3 km/h (1 Bft)
11.12.2017 09:00 2,3 C 97 % 983,8 hPa 1,0 l/m 0,1 km/h (0 Bft) O-SO 1,8 C 2,3 C 1,0 km/h (0 Bft)
11.12.2017 10:00 2,4 C 97 % 982,7 hPa 0,3 l/m 0,0 km/h (0 Bft) N 2,0 C 2,4 C 0,1 km/h (0 Bft)
11.12.2017 11:00 2,8 C 97 % 982,2 hPa 1,0 l/m 0,3 km/h (0 Bft) N 2,5 C 2,8 C 0,9 km/h (0 Bft)
11.12.2017 12:00 3,4 C 98 % 981,4 hPa 0,5 l/m 0,2 km/h (0 Bft) N 3,1 C 3,4 C 1,5 km/h (1 Bft)
11.12.2017 13:00 4,0 C 98 % 981,6 hPa 0,5 l/m 0,3 km/h (0 Bft) O-NO 3,6 C 4,0 C 1,5 km/h (1 Bft)
11.12.2017 14:00 6,0 C 97 % 982,4 hPa 0,5 l/m 6,2 km/h (2 Bft) O-NO 5,5 C 5,2 C 15,8 km/h (3 Bft)
11.12.2017 15:00 5,5 C 94 % 983,8 hPa 0,8 l/m 5,0 km/h (1 Bft) O-NO 4,6 C 5,4 C 13,3 km/h (3 Bft)
11.12.2017 16:00 4,3 C 94 % 984,7 hPa 0,5 l/m 4,7 km/h (1 Bft) O-NO 3,4 C 4,2 C 13,0 km/h (3 Bft)
11.12.2017 17:00 3,7 C 94 % 985,2 hPa 0,3 l/m 4,5 km/h (1 Bft) O-NO 2,8 C 3,6 C 14,0 km/h (3 Bft)
11.12.2017 18:00 3,7 C 94 % 986,1 hPa 0,5 l/m 5,6 km/h (2 Bft) NO 2,7 C 3,4 C 14,6 km/h (3 Bft)
11.12.2017 19:00 3,8 C 92 % 986,8 hPa 0,5 l/m 6,5 km/h (2 Bft) O-NO 2,6 C 3,4 C 16,5 km/h (3 Bft)
11.12.2017 20:00 3,0 C 92 % 987,3 hPa 0,0 l/m 4,8 km/h (1 Bft) O-NO 1,9 C 3,0 C 12,8 km/h (3 Bft)
11.12.2017 21:00 2,6 C 93 % 987,9 hPa 0,0 l/m 4,9 km/h (1 Bft) NO 1,6 C 2,6 C 13,6 km/h (3 Bft)
11.12.2017 22:00 2,6 C 93 % 988,4 hPa 0,0 l/m 5,5 km/h (2 Bft) NO 1,6 C 2,6 C 13,7 km/h (3 Bft)
11.12.2017 23:00 4,9 C 85 % 989,4 hPa 0,3 l/m 10,6 km/h (2 Bft) O-NO 2,7 C 1,7 C 21,7 km/h (4 Bft)
12.12.2017 00:00 5,2 C 82 % 990,3 hPa 0,0 l/m 13,8 km/h (3 Bft) O-NO 2,3 C 0,2 C 28,6 km/h (5 Bft)
12.12.2017 01:00 4,8 C 85 % 991,7 hPa 0,0 l/m 10,6 km/h (2 Bft) NO 2,4 C 1,4 C 26,0 km/h (4 Bft)
12.12.2017 02:00 4,0 C 80 % 993,8 hPa 0,0 l/m 12,0 km/h (2 Bft) O-NO 0,8 C -0,3 C 28,2 km/h (5 Bft)
12.12.2017 03:00 2,7 C 80 % 996,6 hPa 0,0 l/m 9,7 km/h (2 Bft) O -0,4 C -0,1 C 23,5 km/h (4 Bft)
12.12.2017 04:00 1,5 C 79 % 998,1 hPa 0,0 l/m 9,6 km/h (2 Bft) O -1,7 C -1,4 C 24,7 km/h (4 Bft)
12.12.2017 05:00 0,9 C 80 % 1000,3 hPa 0,0 l/m 10,7 km/h (2 Bft) O -2,2 C -2,9 C 27,2 km/h (5 Bft)
12.12.2017 06:00 0,7 C 80 % 1002,9 hPa 0,0 l/m 6,2 km/h (2 Bft) O-NO -2,3 C -0,1 C 18,4 km/h (3 Bft)
12.12.2017 07:00 0,6 C 82 % 1005,0 hPa 0,0 l/m 5,0 km/h (1 Bft) O -2,1 C 0,5 C 15,0 km/h (3 Bft)
12.12.2017 08:00 0,6 C 83 % 1006,5 hPa 0,0 l/m 4,3 km/h (1 Bft) NO -2,0 C 0,6 C 11,5 km/h (2 Bft)
12.12.2017 09:00 0,6 C 84 % 1008,0 hPa 0,0 l/m 3,1 km/h (1 Bft) O-NO -1,8 C 0,6 C 9,0 km/h (2 Bft)
12.12.2017 10:00 0,5 C 87 % 1009,4 hPa 0,0 l/m 3,4 km/h (1 Bft) NO -1,4 C 0,5 C 10,6 km/h (2 Bft)
12.12.2017 11:00 0,9 C 84 % 1010,4 hPa 0,0 l/m 5,1 km/h (1 Bft) NO -1,5 C 0,9 C 11,8 km/h (2 Bft)
12.12.2017 12:00 1,0 C 84 % 1010,8 hPa 0,0 l/m 4,9 km/h (1 Bft) O-NO -1,4 C 0,8 C 11,7 km/h (2 Bft)
12.12.2017 13:00 1,3 C 83 % 1011,5 hPa 0,0 l/m 5,0 km/h (1 Bft) O -1,2 C 1,1 C 13,3 km/h (3 Bft)
12.12.2017 14:00 1,5 C 81 % 1011,9 hPa 0,0 l/m 6,4 km/h (2 Bft) O-NO -1,4 C 1,2 C 15,3 km/h (3 Bft)
12.12.2017 15:00 1,8 C 81 % 1012,9 hPa 0,0 l/m 3,9 km/h (1 Bft) O -1,1 C 1,8 C 11,4 km/h (2 Bft)
12.12.2017 16:00 0,8 C 84 % 1014,1 hPa 0,0 l/m 2,9 km/h (1 Bft) NO -1,7 C 0,8 C 9,2 km/h (2 Bft)
12.12.2017 17:00 0,2 C 85 % 1014,9 hPa 0,0 l/m 2,6 km/h (1 Bft) NO -1,9 C 0,2 C 7,3 km/h (2 Bft)
12.12.2017 18:00 -0,5 C 88 % 1015,4 hPa 0,0 l/m 1,4 km/h (1 Bft) O-NO -2,3 C -0,5 C 4,9 km/h (1 Bft)
12.12.2017 19:00 -0,7 C 88 % 1016,2 hPa 0,0 l/m 2,8 km/h (1 Bft) O-NO -2,4 C -0,7 C 8,4 km/h (2 Bft)
12.12.2017 20:00 -0,7 C 88 % 1016,9 hPa 0,0 l/m 1,8 km/h (1 Bft) O-NO -2,5 C -0,7 C 6,2 km/h (2 Bft)
12.12.2017 21:00 -0,9 C 88 % 1017,3 hPa 0,0 l/m 1,5 km/h (1 Bft) O-NO -2,7 C -0,9 C 6,7 km/h (2 Bft)
12.12.2017 22:00 -0,5 C 86 % 1017,7 hPa 0,0 l/m 2,2 km/h (1 Bft) O-NO -2,6 C -0,5 C 8,0 km/h (2 Bft)
12.12.2017 23:00 -0,7 C 87 % 1018,1 hPa 0,0 l/m 1,8 km/h (1 Bft) NO -2,5 C -0,7 C 4,7 km/h (1 Bft)
13.12.2017 00:00 -1,4 C 88 % 1018,0 hPa 0,0 l/m 0,5 km/h (0 Bft) NO -3,1 C -1,4 C 2,3 km/h (1 Bft)
13.12.2017 01:00 -3,0 C 91 % 1018,4 hPa 0,0 l/m 0,3 km/h (0 Bft) NO -4,2 C -3,0 C 1,2 km/h (1 Bft)
13.12.2017 02:00 -3,0 C 91 % 1018,6 hPa 0,0 l/m 1,2 km/h (1 Bft) NO -4,3 C -3,0 C 5,5 km/h (2 Bft)
13.12.2017 03:00 -3,5 C 91 % 1018,8 hPa 0,0 l/m 0,0 km/h (0 Bft) O -4,8 C -3,5 C 0,0 km/h (0 Bft)
13.12.2017 04:00 -3,5 C 91 % 1018,5 hPa 0,0 l/m 1,7 km/h (1 Bft) N-NO -4,7 C -3,5 C 5,6 km/h (2 Bft)
13.12.2017 05:00 -3,1 C 89 % 1018,2 hPa 0,0 l/m 1,1 km/h (1 Bft) O -4,6 C -3,1 C 4,7 km/h (1 Bft)
13.12.2017 06:00 -3,3 C 90 % 1018,0 hPa 0,0 l/m 0,8 km/h (0 Bft) NO -4,7 C -3,3 C 4,0 km/h (1 Bft)
13.12.2017 07:00 -2,8 C 88 % 1017,7 hPa 0,0 l/m 3,4 km/h (1 Bft) O-NO -4,5 C -2,8 C 10,1 km/h (2 Bft)
13.12.2017 08:00 -3,1 C 88 % 1017,4 hPa 0,0 l/m 3,4 km/h (1 Bft) NO -4,8 C -3,1 C 11,4 km/h (2 Bft)
13.12.2017 09:00 -2,8 C 89 % 1016,9 hPa 0,0 l/m 5,6 km/h (2 Bft) O-NO -4,4 C -2,9 C 15,4 km/h (3 Bft)
13.12.2017 10:00 -1,1 C 84 % 1016,0 hPa 0,0 l/m 6,2 km/h (2 Bft) NO -3,4 C -1,3 C 15,2 km/h (3 Bft)
13.12.2017 11:00 1,2 C 77 % 1013,9 hPa 0,0 l/m 4,7 km/h (1 Bft) NO -2,4 C 1,2 C 11,6 km/h (2 Bft)
13.12.2017 12:00 1,9 C 76 % 1012,6 hPa 0,0 l/m 4,9 km/h (1 Bft) NO -1,9 C 1,7 C 9,9 km/h (2 Bft)
13.12.2017 13:00 1,1 C 80 % 1011,0 hPa 0,0 l/m 7,0 km/h (2 Bft) O-NO -2,0 C 0,1 C 14,1 km/h (3 Bft)
13.12.2017 14:00 0,5 C 82 % 1009,8 hPa 0,0 l/m 5,2 km/h (1 Bft) O-NO -2,2 C 0,2 C 10,5 km/h (2 Bft)
13.12.2017 15:00 0,7 C 85 % 1008,6 hPa 0,0 l/m 3,8 km/h (1 Bft) O-NO -1,5 C 0,4 C 7,4 km/h (2 Bft)
13.12.2017 16:00 0,4 C 93 % 1008,0 hPa 0,0 l/m 5,7 km/h (2 Bft) O-NO -0,5 C 0,1 C 10,5 km/h (2 Bft)
13.12.2017 17:00 1,1 C 94 % 1007,2 hPa 0,5 l/m 7,6 km/h (2 Bft) NO 0,2 C -0,3 C 15,3 km/h (3 Bft)
13.12.2017 18:00 2,7 C 92 % 1006,2 hPa 1,8 l/m 9,9 km/h (2 Bft) O-NO 1,5 C -0,3 C 23,2 km/h (4 Bft)
13.12.2017 19:00 3,2 C 92 % 1005,1 hPa 0,5 l/m 9,7 km/h (2 Bft) NO 1,9 C 0,4 C 21,5 km/h (4 Bft)
13.12.2017 20:00 3,5 C 91 % 1003,6 hPa 0,3 l/m 6,6 km/h (2 Bft) NO 2,2 C 2,9 C 16,6 km/h (3 Bft)
13.12.2017 21:00 1,6 C 93 % 1002,1 hPa 1,0 l/m 6,5 km/h (2 Bft) O 0,7 C 1,0 C 15,6 km/h (3 Bft)
13.12.2017 22:00 1,3 C 95 % 1000,0 hPa 3,8 l/m 5,3 km/h (1 Bft) NO 0,5 C 1,0 C 13,2 km/h (3 Bft)
13.12.2017 23:00 1,9 C 96 % 998,7 hPa 3,6 l/m 6,3 km/h (2 Bft) NO 1,4 C 0,8 C 13,5 km/h (3 Bft)
14.12.2017 00:00 4,9 C 96 % 998,0 hPa 1,3 l/m 12,2 km/h (2 Bft) O-NO 4,2 C 0,7 C 29,1 km/h (5 Bft)
14.12.2017 01:00 5,8 C 94 % 997,3 hPa 5,8 l/m 12,5 km/h (2 Bft) O-NO 4,9 C 1,4 C 31,1 km/h (5 Bft)
14.12.2017 02:00 5,8 C 93 % 997,8 hPa 6,4 l/m 13,3 km/h (3 Bft) O-NO 4,7 C 1,0 C 32,6 km/h (5 Bft)
14.12.2017 03:00 4,7 C 94 % 998,2 hPa 4,8 l/m 7,3 km/h (2 Bft) NO 3,8 C 3,7 C 20,3 km/h (4 Bft)
14.12.2017 04:00 4,6 C 93 % 997,9 hPa 0,8 l/m 9,1 km/h (2 Bft) NO 3,6 C 2,3 C 21,6 km/h (4 Bft)
14.12.2017 05:00 2,7 C 91 % 999,6 hPa 5,1 l/m 12,1 km/h (2 Bft) O-NO 1,4 C -1,8 C 24,0 km/h (4 Bft)
14.12.2017 06:00 2,2 C 89 % 1001,5 hPa 0,0 l/m 7,7 km/h (2 Bft) O 0,6 C 0,3 C 15,3 km/h (3 Bft)
14.12.2017 07:00 1,8 C 87 % 1003,1 hPa 0,0 l/m 5,9 km/h (2 Bft) O -0,2 C 1,2 C 11,4 km/h (2 Bft)
14.12.2017 08:00 1,7 C 86 % 1003,8 hPa 0,0 l/m 6,4 km/h (2 Bft) O -0,5 C 0,6 C 11,6 km/h (2 Bft)
14.12.2017 09:00 2,2 C 85 % 1004,1 hPa 0,0 l/m 5,6 km/h (2 Bft) NO -0,1 C 2,0 C 15,4 km/h (3 Bft)
14.12.2017 10:00 3,0 C 81 % 1004,0 hPa 0,0 l/m 7,1 km/h (2 Bft) O-NO -0,0 C 2,0 C 19,2 km/h (3 Bft)
14.12.2017 11:00 3,6 C 76 % 1003,6 hPa 0,0 l/m 7,2 km/h (2 Bft) O-NO -0,2 C 2,4 C 16,0 km/h (3 Bft)
14.12.2017 12:00 3,7 C 77 % 1003,2 hPa 0,0 l/m 8,2 km/h (2 Bft) O-NO -0,1 C 1,9 C 17,8 km/h (3 Bft)
14.12.2017 13:00 3,7 C 77 % 1002,4 hPa 0,0 l/m 8,4 km/h (2 Bft) O-NO 0,0 C 1,8 C 21,3 km/h (4 Bft)
14.12.2017 14:00 3,9 C 76 % 1001,5 hPa 0,0 l/m 8,5 km/h (2 Bft) O-NO -0,0 C 2,1 C 20,8 km/h (4 Bft)
14.12.2017 15:00 3,8 C 77 % 1000,5 hPa 0,0 l/m 7,4 km/h (2 Bft) O-NO 0,1 C 2,7 C 19,3 km/h (3 Bft)
14.12.2017 16:00 3,6 C 80 % 999,5 hPa 0,0 l/m 6,3 km/h (2 Bft) O-NO 0,5 C 3,3 C 16,2 km/h (3 Bft)
14.12.2017 17:00 3,4 C 81 % 998,4 hPa 0,0 l/m 8,0 km/h (2 Bft) NO 0,5 C 1,8 C 19,2 km/h (3 Bft)
14.12.2017 18:00 2,6 C 89 % 997,4 hPa 0,5 l/m 4,5 km/h (1 Bft) NO 0,9 C 2,6 C 10,6 km/h (2 Bft)
14.12.2017 19:00 1,8 C 94 % 996,5 hPa 1,8 l/m 4,8 km/h (1 Bft) N-NO 0,9 C 1,6 C 12,6 km/h (3 Bft)
14.12.2017 20:00 2,2 C 94 % 995,6 hPa 0,3 l/m 6,2 km/h (2 Bft) NO 1,3 C 1,8 C 15,6 km/h (3 Bft)
14.12.2017 21:00 1,7 C 94 % 995,3 hPa 0,0 l/m 3,8 km/h (1 Bft) NO 0,8 C 1,7 C 9,8 km/h (2 Bft)
14.12.2017 22:00 2,4 C 94 % 994,6 hPa 0,5 l/m 5,1 km/h (1 Bft) O 1,6 C 2,3 C 12,7 km/h (3 Bft)
14.12.2017 23:00 1,7 C 94 % 994,0 hPa 0,5 l/m 3,6 km/h (1 Bft) NO 0,8 C 1,7 C 8,9 km/h (2 Bft)
15.12.2017 00:00 1,7 C 94 % 993,6 hPa 0,3 l/m 3,5 km/h (1 Bft) NO 0,8 C 1,7 C 8,6 km/h (2 Bft)
15.12.2017 01:00 2,3 C 93 % 993,6 hPa 0,3 l/m 6,0 km/h (2 Bft) O 1,2 C 1,8 C 15,7 km/h (3 Bft)
15.12.2017 02:00 1,7 C 92 % 994,2 hPa 1,0 l/m 6,8 km/h (2 Bft) O 0,6 C 0,5 C 18,9 km/h (3 Bft)
15.12.2017 03:00 1,1 C 93 % 995,6 hPa 0,8 l/m 6,7 km/h (2 Bft) O-NO 0,1 C 0,5 C 17,6 km/h (3 Bft)
15.12.2017 04:00 1,3 C 91 % 996,6 hPa 0,5 l/m 5,3 km/h (1 Bft) NO 0,1 C 1,0 C 15,8 km/h (3 Bft)
15.12.2017 05:00 1,2 C 90 % 996,9 hPa 0,0 l/m 5,6 km/h (2 Bft) O-NO -0,2 C 1,1 C 15,0 km/h (3 Bft)
15.12.2017 06:00 0,8 C 89 % 997,5 hPa 0,0 l/m 2,9 km/h (1 Bft) O-NO -0,8 C 0,8 C 9,8 km/h (2 Bft)
15.12.2017 07:00 0,5 C 90 % 998,0 hPa 0,0 l/m 3,0 km/h (1 Bft) NO -1,1 C 0,5 C 8,6 km/h (2 Bft)
15.12.2017 08:00 0,9 C 87 % 998,3 hPa 0,0 l/m 4,2 km/h (1 Bft) O-NO -1,1 C 0,8 C 10,9 km/h (2 Bft)
15.12.2017 09:00 1,0 C 88 % 998,6 hPa 0,0 l/m 5,0 km/h (1 Bft) O -0,7 C 1,0 C 13,0 km/h (3 Bft)
15.12.2017 10:00 1,2 C 90 % 998,5 hPa 0,3 l/m 6,1 km/h (2 Bft) NO -0,3 C 0,9 C 13,6 km/h (3 Bft)
15.12.2017 11:00 3,4 C 79 % 998,1 hPa 0,3 l/m 12,7 km/h (3 Bft) O-NO 0,2 C -1,3 C 26,2 km/h (4 Bft)
15.12.2017 12:00 3,6 C 79 % 997,8 hPa 0,0 l/m 11,0 km/h (2 Bft) NO 0,2 C -0,1 C 25,6 km/h (4 Bft)
15.12.2017 13:00 3,0 C 82 % 998,2 hPa 0,0 l/m 9,1 km/h (2 Bft) O-NO 0,2 C 0,6 C 21,8 km/h (4 Bft)
15.12.2017 14:00 2,4 C 85 % 998,5 hPa 0,3 l/m 9,1 km/h (2 Bft) O 0,2 C 0,0 C 22,5 km/h (4 Bft)
15.12.2017 15:00 2,8 C 80 % 998,8 hPa 0,0 l/m 6,1 km/h (2 Bft) O-NO -0,2 C 2,3 C 17,0 km/h (3 Bft)
15.12.2017 16:00 2,3 C 80 % 999,3 hPa 0,0 l/m 3,4 km/h (1 Bft) O-NO -0,8 C 2,3 C 9,5 km/h (2 Bft)
15.12.2017 17:00 2,1 C 85 % 999,7 hPa 0,0 l/m 2,1 km/h (1 Bft) O-NO -0,2 C 2,1 C 7,1 km/h (2 Bft)
15.12.2017 18:00 1,2 C 89 % 1000,0 hPa 0,0 l/m 0,2 km/h (0 Bft) N-NO -0,3 C 1,2 C 1,6 km/h (1 Bft)
15.12.2017 19:00 0,8 C 91 % 1000,3 hPa 0,0 l/m 0,8 km/h (0 Bft) O -0,5 C 0,8 C 3,5 km/h (1 Bft)
15.12.2017 20:00 0,8 C 91 % 1000,5 hPa 0,0 l/m 1,2 km/h (1 Bft) O -0,5 C 0,8 C 4,0 km/h (1 Bft)
15.12.2017 21:00 0,1 C 93 % 1000,8 hPa 0,0 l/m 0,0 km/h (0 Bft) O -0,9 C 0,1 C 0,1 km/h (0 Bft)
15.12.2017 22:00 -0,3 C 95 % 1000,8 hPa 0,0 l/m 0,5 km/h (0 Bft) O -1,1 C -0,3 C 1,9 km/h (1 Bft)
15.12.2017 23:00 0,1 C 93 % 1001,0 hPa 0,0 l/m 0,4 km/h (0 Bft) O-NO -0,8 C 0,1 C 2,2 km/h (1 Bft)
16.12.2017 00:00 -0,1 C 93 % 1001,2 hPa 0,0 l/m 0,0 km/h (0 Bft) O-NO -1,1 C -0,1 C 0,5 km/h (0 Bft)
16.12.2017 01:00 -0,9 C 95 % 1001,7 hPa 0,0 l/m 0,0 km/h (0 Bft) O-NO -1,7 C -0,9 C 0,4 km/h (0 Bft)
16.12.2017 02:00 -0,8 C 96 % 1002,3 hPa 0,0 l/m 0,0 km/h (0 Bft) O-NO -1,4 C -0,8 C 0,4 km/h (0 Bft)
16.12.2017 03:00 -0,5 C 96 % 1003,0 hPa 0,0 l/m 0,0 km/h (0 Bft) O-NO -1,0 C -0,5 C 0,4 km/h (0 Bft)
16.12.2017 04:00 -0,3 C 96 % 1003,7 hPa 0,0 l/m 0,0 km/h (0 Bft) O-NO -0,9 C -0,3 C 0,0 km/h (0 Bft)
16.12.2017 05:00 -0,0 C 96 % 1004,3 hPa 0,0 l/m 1,0 km/h (0 Bft) O-NO -0,6 C -0,0 C 3,9 km/h (1 Bft)
16.12.2017 06:00 0,2 C 96 % 1005,0 hPa 0,0 l/m 1,3 km/h (1 Bft) O-NO -0,3 C 0,2 C 4,9 km/h (1 Bft)
16.12.2017 07:00 0,2 C 96 % 1006,0 hPa 0,0 l/m 0,5 km/h (0 Bft) O-NO -0,4 C 0,2 C 2,9 km/h (1 Bft)
16.12.2017 08:00 0,2 C 96 % 1007,0 hPa 0,0 l/m 1,0 km/h (0 Bft) O-NO -0,4 C 0,2 C 4,1 km/h (1 Bft)
16.12.2017 09:00 0,2 C 96 % 1008,2 hPa 0,0 l/m 0,4 km/h (0 Bft) O-NO -0,4 C 0,2 C 3,2 km/h (1 Bft)
16.12.2017 10:00 0,6 C 95 % 1009,7 hPa 0,0 l/m 0,6 km/h (0 Bft) O-NO -0,1 C 0,6 C 2,9 km/h (1 Bft)
16.12.2017 11:00 0,7 C 95 % 1010,9 hPa 0,0 l/m 0,1 km/h (0 Bft) N -0,0 C 0,7 C 0,7 km/h (0 Bft)
16.12.2017 12:00 0,8 C 95 % 1011,6 hPa 0,3 l/m 0,4 km/h (0 Bft) S 0,0 C 0,8 C 2,2 km/h (1 Bft)
16.12.2017 13:00 0,8 C 93 % 1012,3 hPa 0,8 l/m 0,9 km/h (0 Bft) O-NO -0,2 C 0,8 C 4,3 km/h (1 Bft)
16.12.2017 14:00 1,3 C 89 % 1012,9 hPa 0,5 l/m 3,1 km/h (1 Bft) O -0,3 C 1,3 C 8,8 km/h (2 Bft)
16.12.2017 15:00 0,6 C 92 % 1013,8 hPa 0,0 l/m 2,3 km/h (1 Bft) O-NO -0,6 C 0,6 C 7,0 km/h (2 Bft)
16.12.2017 16:00 0,3 C 92 % 1014,7 hPa 0,0 l/m 1,5 km/h (1 Bft) O -0,8 C 0,3 C 6,0 km/h (2 Bft)
16.12.2017 17:00 0,0 C 94 % 1015,5 hPa 0,0 l/m 0,3 km/h (0 Bft) O -0,8 C 0,0 C 1,9 km/h (1 Bft)
16.12.2017 18:00 -0,4 C 93 % 1016,5 hPa 0,0 l/m 0,1 km/h (0 Bft) SO -1,4 C -0,4 C 1,1 km/h (0 Bft)
16.12.2017 19:00 -0,4 C 94 % 1017,2 hPa 0,0 l/m 0,1 km/h (0 Bft) SO -1,2 C -0,4 C 1,1 km/h (0 Bft)
16.12.2017 20:00 -0,1 C 94 % 1017,7 hPa 0,0 l/m 1,1 km/h (1 Bft) O -0,9 C -0,1 C 4,1 km/h (1 Bft)
16.12.2017 21:00 -0,1 C 95 % 1018,2 hPa 0,0 l/m 0,9 km/h (0 Bft) O -0,8 C -0,1 C 3,6 km/h (1 Bft)
16.12.2017 22:00 -0,3 C 95 % 1018,5 hPa 0,0 l/m 0,4 km/h (0 Bft) NO -0,9 C -0,3 C 2,9 km/h (1 Bft)
16.12.2017 23:00 -0,4 C 95 % 1019,0 hPa 0,0 l/m 0,6 km/h (0 Bft) O -1,1 C -0,4 C 3,0 km/h (1 Bft)
17.12.2017 00:00 -0,4 C 95 % 1019,1 hPa 0,0 l/m 1,0 km/h (0 Bft) O-NO -1,1 C -0,4 C 3,6 km/h (1 Bft)
17.12.2017 01:00 -0,4 C 95 % 1019,3 hPa 0,0 l/m 0,7 km/h (0 Bft) O -1,1 C -0,4 C 3,5 km/h (1 Bft)
17.12.2017 02:00 -0,5 C 95 % 1019,9 hPa 0,0 l/m 0,4 km/h (0 Bft) O -1,2 C -0,5 C 2,5 km/h (1 Bft)
17.12.2017 03:00 -0,6 C 96 % 1020,5 hPa 0,0 l/m 0,1 km/h (0 Bft) O -1,2 C -0,6 C 1,2 km/h (1 Bft)
17.12.2017 04:00 -0,7 C 95 % 1020,9 hPa 0,0 l/m 0,2 km/h (0 Bft) O-NO -1,4 C -0,7 C 2,3 km/h (1 Bft)
17.12.2017 05:00 -0,8 C 95 % 1021,2 hPa 0,0 l/m 0,7 km/h (0 Bft) O -1,6 C -0,8 C 2,8 km/h (1 Bft)
17.12.2017 06:00 -0,9 C 93 % 1021,7 hPa 0,0 l/m 0,7 km/h (0 Bft) O-NO -1,9 C -0,9 C 3,6 km/h (1 Bft)
17.12.2017 07:00 -1,1 C 93 % 1022,3 hPa 0,0 l/m 0,5 km/h (0 Bft) O-NO -2,1 C -1,1 C 3,1 km/h (1 Bft)
17.12.2017 08:00 -1,3 C 92 % 1022,8 hPa 0,0 l/m 0,9 km/h (0 Bft) O -2,5 C -1,3 C 4,4 km/h (1 Bft)
17.12.2017 09:00 -1,5 C 92 % 1023,6 hPa 0,0 l/m 0,5 km/h (0 Bft) O-NO -2,6 C -1,5 C 3,9 km/h (1 Bft)
17.12.2017 10:00 -1,0 C 90 % 1024,5 hPa 0,0 l/m 1,2 km/h (1 Bft) O-NO -2,4 C -1,0 C 5,8 km/h (2 Bft)
17.12.2017 11:00 0,0 C 86 % 1024,9 hPa 0,0 l/m 2,5 km/h (1 Bft) O-NO -2,1 C -0,0 C 7,0 km/h (2 Bft)
17.12.2017 12:00 0,8 C 83 % 1024,7 hPa 1,8 l/m 3,8 km/h (1 Bft) O -1,8 C 0,7 C 10,4 km/h (2 Bft)
17.12.2017 13:00 0,2 C 84 % 1024,7 hPa 0,8 l/m 3,0 km/h (1 Bft) O-NO -2,1 C 0,2 C 10,3 km/h (2 Bft)
17.12.2017 14:00 -0,0 C 84 % 1025,1 hPa 0,5 l/m 2,1 km/h (1 Bft) O-NO -2,4 C -0,0 C 6,4 km/h (2 Bft)
17.12.2017 15:00 -0,7 C 87 % 1025,6 hPa 0,3 l/m 1,0 km/h (0 Bft) O-NO -2,6 C -0,7 C 4,5 km/h (1 Bft)
17.12.2017 16:00 -0,9 C 90 % 1026,1 hPa 0,0 l/m 0,8 km/h (0 Bft) O-NO -2,3 C -0,9 C 3,3 km/h (1 Bft)
17.12.2017 17:00 -1,0 C 91 % 1026,9 hPa 0,0 l/m 0,4 km/h (0 Bft) O-NO -2,3 C -1,0 C 2,7 km/h (1 Bft)
17.12.2017 18:00 -1,0 C 92 % 1027,3 hPa 0,0 l/m 0,9 km/h (0 Bft) O-NO -2,2 C -1,0 C 4,3 km/h (1 Bft)
17.12.2017 19:00 -1,0 C 91 % 1027,4 hPa 0,0 l/m 0,7 km/h (0 Bft) O-NO -2,2 C -1,0 C 2,7 km/h (1 Bft)
17.12.2017 20:00 -1,2 C 93 % 1027,6 hPa 0,0 l/m 1,5 km/h (1 Bft) NO -2,2 C -1,2 C 4,7 km/h (1 Bft)
17.12.2017 21:00 -1,3 C 93 % 1027,8 hPa 0,0 l/m 2,1 km/h (1 Bft) O-NO -2,3 C -1,3 C 6,3 km/h (2 Bft)
17.12.2017 22:00 -1,4 C 93 % 1027,4 hPa 0,0 l/m 0,2 km/h (0 Bft) O-NO -2,4 C -1,4 C 1,5 km/h (1 Bft)
17.12.2017 23:00 -1,6 C 93 % 1027,0 hPa 0,0 l/m 1,0 km/h (0 Bft) O-NO -2,6 C -1,6 C 3,3 km/h (1 Bft)
Min-Datum _ 13.12.17 14.12.17 11.12.17 - 17.12.17 - 13.12.17 14.12.17 17.12.17
_ Min-Zeit 04:00 14:00 12:17 - 23:35 - 03:45 06:18 23:35
Minimum _ -3,8 C 74 % 981,2 hPa - 0,0 km/h (0 Bft) - -5,0 C -7,2 C 0,0 km/h (0 Bft)
Max-Datum _ 11.12.17 14.12.17 17.12.17 14.12.17 15.12.17 - 11.12.17 11.12.17 14.12.17
_ Max-Zeit 14:29 00:00 21:00 02:45 11:53 - 14:29 14:51 00:50
Maximum _ 6,3 C 98 % 1027,9 hPa 6,4 l/m 20,9 km/h
O-NO (4 Bft)
- 6,0 C 6,3 C 48,3 km/h
O-NO (6 Bft)
Durchschnitt _ 1,2 C 90 % 1005,4 hPa #63,5 l/m 3,9 km/h (1 Bft) O-NO -0,4 C 0,6 C 10,2 km/h (2 Bft)